Lisa — PCTI — position and weather

sailwx.info

Track history (hours):
 
Tides and Currents Weather Stations Pressure Air Temp Water Temp Dewpoint Dewpoint Depression Visibility Wind Speed Wind Dir Waves Ship Positions

Lisa

Last reported at 2017-Nov-11 12:07 UTC. Time now 2017-Nov-18 10:07 UTC.
Position N 30°30' W 012°50'.

Length 108 m; draft 6.6 m.

Type: Cargo ship. MMSI: 246922000.

Date/timePositionNaut miles runAvg speedWind from/ knotsBaromVisibWave heightAir tempDewpointWater temp
2017-Nov-11 12:07N 30°30' W 012°50'1 7.2
2017-Nov-11 12:00N 30°30' W 012°51'3 6.6
2017-Nov-11 11:30N 30°27' W 012°53'151 5.3
2017-Nov-10 07:12N 28°28' W 014°40'1 5.9
2017-Nov-10 07:00N 28°27' W 014°41'3 6.4
2017-Nov-10 06:30N 28°25' W 014°44'3 6.5
2017-Nov-10 06:00N 28°23' W 014°46'3 6.7
2017-Nov-10 05:30N 28°20' W 014°49'3 6.3
2017-Nov-10 05:00N 28°17' W 014°50'3 6.3
2017-Nov-10 04:31N 28°14' W 014°51'3 6.6
2017-Nov-10 04:01N 28°11' W 014°52'3 6.4
2017-Nov-10 03:30N 28°08' W 014°54'3 6.4
2017-Nov-10 03:00N 28°05' W 014°55'3 6.7
2017-Nov-10 02:30N 28°02' W 014°56'3 6.8
2017-Nov-10 02:00N 27°59' W 014°58'3 6.6
2017-Nov-10 01:31N 27°56' W 014°59'4 7.0
2017-Nov-10 01:01N 27°52' W 015°00'4 7.1
2017-Nov-10 00:30N 27°49' W 015°02'3 6.7
2017-Nov-10 00:00N 27°46' W 015°03'3 6.6
2017-Nov-09 23:30N 27°43' W 015°05'3 6.6
2017-Nov-09 23:00N 27°40' W 015°06'3 7.0
2017-Nov-09 22:30N 27°37' W 015°08'4 7.2
2017-Nov-09 22:00N 27°33' W 015°10'  
Track history (hours):
 
Tides and Currents Weather Stations Pressure Air Temp Water Temp Dewpoint Dewpoint Depression Visibility Wind Speed Wind Dir Waves Ship Positions

Lisa

Last reported at 2017-Nov-11 12:07 UTC. Time now 2017-Nov-18 10:07 UTC.
Position N 30°30' W 012°50'.

Length 108 m; draft 6.6 m.

Type: Cargo ship. MMSI: 246922000.

Date/timePositionNaut miles runAvg speedWind from/ knotsBaromVisibWave heightAir tempDewpointWater temp
2017-Nov-11 12:07N 30°30' W 012°50'1 7.2
2017-Nov-11 12:00N 30°30' W 012°51'3 6.6
2017-Nov-11 11:30N 30°27' W 012°53'151 5.3
2017-Nov-10 07:12N 28°28' W 014°40'1 5.9
2017-Nov-10 07:00N 28°27' W 014°41'3 6.4
2017-Nov-10 06:30N 28°25' W 014°44'3 6.5
2017-Nov-10 06:00N 28°23' W 014°46'3 6.7
2017-Nov-10 05:30N 28°20' W 014°49'3 6.3
2017-Nov-10 05:00N 28°17' W 014°50'3 6.3
2017-Nov-10 04:31N 28°14' W 014°51'3 6.6
2017-Nov-10 04:01N 28°11' W 014°52'3 6.4
2017-Nov-10 03:30N 28°08' W 014°54'3 6.4
2017-Nov-10 03:00N 28°05' W 014°55'3 6.7
2017-Nov-10 02:30N 28°02' W 014°56'3 6.8
2017-Nov-10 02:00N 27°59' W 014°58'3 6.6
2017-Nov-10 01:31N 27°56' W 014°59'4 7.0
2017-Nov-10 01:01N 27°52' W 015°00'4 7.1
2017-Nov-10 00:30N 27°49' W 015°02'3 6.7
2017-Nov-10 00:00N 27°46' W 015°03'3 6.6
2017-Nov-09 23:30N 27°43' W 015°05'3 6.6
2017-Nov-09 23:00N 27°40' W 015°06'3 7.0
2017-Nov-09 22:30N 27°37' W 015°08'4 7.2
2017-Nov-09 22:00N 27°33' W 015°10'  

Dump ship's entire track history